createdAt,value
2019-02-27T00:02:29.832Z,101629.23
2019-02-27T00:05:01.573Z,101629.25
2019-02-27T00:07:34.581Z,101622.78
2019-02-27T00:10:08.122Z,101621.98
2019-02-27T00:12:40.352Z,101617.63
2019-02-27T00:15:12.321Z,101618.07
2019-02-27T00:17:44.868Z,101613.74
2019-02-27T00:20:18.349Z,101612.06
2019-02-27T00:22:50.607Z,101620.25
2019-02-27T00:25:23.610Z,101618.12
2019-02-27T00:27:55.403Z,101628.09
2019-02-27T00:30:27.154Z,101624.22
2019-02-27T00:32:59.098Z,101625.53
2019-02-27T00:35:30.916Z,101627.70
2019-02-27T00:38:04.394Z,101629.06
2019-02-27T00:40:39.328Z,101629.50
2019-02-27T00:43:09.703Z,101628.27
2019-02-27T00:45:41.543Z,101623.49
2019-02-27T00:48:14.780Z,101625.69
2019-02-27T00:50:46.559Z,101627.47
2019-02-27T00:53:18.935Z,101611.08
2019-02-27T00:55:50.723Z,101611.08
2019-02-27T00:58:26.807Z,101617.14
2019-02-27T01:00:56.183Z,101615.46
2019-02-27T01:03:28.207Z,101614.62
2019-02-27T01:06:00.042Z,101617.23
2019-02-27T01:08:32.232Z,101621.14
2019-02-27T01:11:04.018Z,101625.47
2019-02-27T01:13:35.819Z,101610.81
2019-02-27T01:16:07.587Z,101610.88
2019-02-27T01:18:39.858Z,101614.33
2019-02-27T01:21:11.661Z,101610.04
2019-02-27T01:23:44.622Z,101607.45
2019-02-27T01:26:17.976Z,101607.02
2019-02-27T01:28:49.815Z,101597.95
2019-02-27T01:31:24.053Z,101605.33
2019-02-27T01:33:56.395Z,101610.09
2019-02-27T01:36:28.195Z,101604.06
2019-02-27T01:39:00.131Z,101603.23
2019-02-27T01:41:32.130Z,101606.27
2019-02-27T01:44:03.925Z,101597.22
2019-02-27T01:46:35.772Z,101606.69
2019-02-27T01:49:07.834Z,101606.30
2019-02-27T01:51:39.628Z,101608.44
2019-02-27T01:54:12.274Z,101602.81
2019-02-27T01:56:45.279Z,101603.26
2019-02-27T01:59:17.814Z,101594.65
2019-02-27T02:01:49.788Z,101601.12
2019-02-27T02:04:21.895Z,101596.39
2019-02-27T02:06:53.655Z,101592.97
2019-02-27T02:09:39.889Z,101594.67
2019-02-27T02:12:23.236Z,101585.19
2019-02-27T02:15:47.169Z,101585.63
2019-02-27T02:19:10.699Z,101578.74
2019-02-27T02:21:59.903Z,101580.95
2019-02-27T02:25:11.915Z,101585.25
2019-02-27T02:28:48.332Z,101589.14
2019-02-27T02:31:53.871Z,101584.02
2019-02-27T02:35:52.964Z,101589.19
2019-02-27T02:39:00.144Z,101589.20
2019-02-27T02:42:08.234Z,101591.36
2019-02-27T02:45:13.418Z,101587.48
2019-02-27T02:48:51.397Z,101596.13
2019-02-27T02:51:54.781Z,101583.19
2019-02-27T02:54:59.762Z,101580.59
2019-02-27T02:58:29.510Z,101576.70
2019-02-27T03:01:45.694Z,101575.42
2019-02-27T03:05:07.722Z,101579.69
2019-02-27T03:08:28.490Z,101584.43
2019-02-27T03:11:54.866Z,101579.70
2019-02-27T03:15:00.308Z,101577.12
2019-02-27T03:18:32.878Z,101576.27
2019-02-27T03:21:29.763Z,101578.42
2019-02-27T03:25:10.485Z,101568.95
2019-02-27T03:28:40.589Z,101571.11
2019-02-27T03:31:45.731Z,101570.27
2019-02-27T03:35:10.723Z,101573.71
2019-02-27T03:38:12.814Z,101571.56
2019-02-27T03:41:37.800Z,101567.28
2019-02-27T03:45:05.299Z,101558.23
2019-02-27T03:48:15.898Z,101565.16
2019-02-27T03:51:24.676Z,101554.83
2019-02-27T03:54:35.203Z,101557.41
2019-02-27T03:58:03.798Z,101552.25
2019-02-27T04:00:57.536Z,101553.55
2019-02-27T04:04:22.640Z,101559.17
2019-02-27T04:08:08.880Z,101556.59
2019-02-27T04:10:41.144Z,101556.20
2019-02-27T04:13:13.297Z,101551.04
2019-02-27T04:15:45.099Z,101554.06
2019-02-27T04:18:14.557Z,101549.75
2019-02-27T04:20:50.882Z,101554.08
2019-02-27T04:23:21.462Z,101560.11
2019-02-27T04:25:53.250Z,101557.57
2019-02-27T04:28:29.580Z,101557.58
2019-02-27T04:30:58.878Z,101554.98
2019-02-27T04:33:30.944Z,101551.52
2019-02-27T04:36:02.758Z,101545.94
2019-02-27T04:38:34.767Z,101545.51
2019-02-27T04:41:06.589Z,101546.41
2019-02-27T04:43:38.599Z,101544.66
2019-02-27T04:46:10.528Z,101552.87
2019-02-27T04:48:42.528Z,101548.55
2019-02-27T04:51:16.926Z,101560.19
2019-02-27T04:53:48.598Z,101561.08
2019-02-27T04:56:23.134Z,101571.42
2019-02-27T04:58:53.916Z,101578.73
2019-02-27T05:01:26.885Z,101580.48
2019-02-27T05:04:01.074Z,101565.40
2019-02-27T05:06:32.221Z,101562.81
2019-02-27T05:09:04.377Z,101564.11
2019-02-27T05:11:37.762Z,101561.08
2019-02-27T05:14:10.166Z,101560.22
2019-02-27T05:16:42.132Z,101558.49
2019-02-27T05:19:15.282Z,101557.20
2019-02-27T05:21:47.209Z,101553.33
2019-02-27T05:24:19.337Z,101556.76
2019-02-27T05:26:51.090Z,101556.80
2019-02-27T05:29:23.145Z,101562.81
2019-02-27T05:31:55.098Z,101558.49
2019-02-27T05:34:27.101Z,101557.64
2019-02-27T05:36:58.875Z,101574.45
2019-02-27T05:39:30.763Z,101576.15
2019-02-27T05:42:06.138Z,101580.91
2019-02-27T05:44:36.251Z,101578.29
2019-02-27T05:47:08.651Z,101581.75
2019-02-27T05:49:41.843Z,101584.75
2019-02-27T05:52:14.364Z,101591.20
2019-02-27T05:54:46.964Z,101584.30
2019-02-27T05:57:21.091Z,101583.85
2019-02-27T05:59:52.357Z,101569.21
2019-02-27T06:02:25.568Z,101572.64
2019-02-27T06:04:59.212Z,101571.76
2019-02-27T06:07:31.756Z,101566.56
2019-02-27T06:10:03.868Z,101573.47
2019-02-27T06:12:38.139Z,101584.22
2019-02-27T06:15:13.778Z,101593.27
2019-02-27T06:17:48.787Z,101598.00
2019-02-27T06:20:20.480Z,101585.44
2019-02-27T06:22:52.257Z,101588.07
2019-02-27T06:25:24.163Z,101586.72
2019-02-27T06:27:57.226Z,101588.84
2019-02-27T06:30:30.784Z,101593.17
2019-02-27T06:33:02.718Z,101589.68
2019-02-27T06:35:34.594Z,101588.36
2019-02-27T06:38:06.434Z,101584.01
2019-02-27T06:40:42.097Z,101580.98
2019-02-27T06:43:11.953Z,101584.38
2019-02-27T06:45:46.389Z,101569.62
2019-02-27T06:48:19.033Z,101574.74
2019-02-27T06:50:50.794Z,101571.23
2019-02-27T06:53:22.638Z,101573.78
2019-02-27T06:55:54.705Z,101569.83
2019-02-27T06:58:26.500Z,101567.58
2019-02-27T07:00:58.351Z,101563.53
2019-02-27T07:03:32.876Z,101559.14
2019-02-27T07:06:04.200Z,101558.08
2019-02-27T07:08:38.087Z,101562.63
2019-02-27T07:11:11.261Z,101555.19
2019-02-27T07:13:43.318Z,101556.80
2019-02-27T07:16:15.333Z,101542.77
2019-02-27T07:18:47.355Z,101540.05
2019-02-27T07:21:19.247Z,101539.80
2019-02-27T07:23:51.039Z,101543.53
2019-02-27T07:26:22.850Z,101543.72
2019-02-27T07:28:54.653Z,101543.47
2019-02-27T07:31:26.703Z,101539.80
2019-02-27T07:33:58.849Z,101536.70
2019-02-27T07:36:30.699Z,101540.38
2019-02-27T07:39:02.463Z,101536.13
2019-02-27T07:41:36.194Z,101534.80
2019-02-27T07:44:07.998Z,101532.78
2019-02-27T07:46:39.873Z,101539.98
2019-02-27T07:49:11.794Z,101542.18
2019-02-27T07:51:43.968Z,101544.22
2019-02-27T07:54:15.829Z,101540.97
2019-02-27T07:56:48.085Z,101538.20
2019-02-27T07:59:19.849Z,101540.97
2019-02-27T08:01:51.918Z,101543.22
2019-02-27T08:04:23.839Z,101533.55
2019-02-27T08:06:55.683Z,101540.39
2019-02-27T08:09:29.890Z,101538.98
2019-02-27T08:12:01.195Z,101533.12
2019-02-27T08:14:36.870Z,101537.70
2019-02-27T08:17:16.987Z,101527.73
2019-02-27T08:19:42.882Z,101526.61
2019-02-27T08:22:14.081Z,101518.45
2019-02-27T08:24:45.933Z,101519.00
2019-02-27T08:27:18.003Z,101519.56
2019-02-27T08:29:49.915Z,101517.96
2019-02-27T08:32:22.130Z,101515.95
2019-02-27T08:34:54.244Z,101514.17
2019-02-27T08:37:26.359Z,101505.13
2019-02-27T08:39:58.117Z,101507.23
2019-02-27T08:42:30.190Z,101507.89
2019-02-27T08:45:02.037Z,101504.17
2019-02-27T08:47:34.222Z,101509.02
2019-02-27T08:50:08.256Z,101507.30
2019-02-27T08:52:40.320Z,101511.03
2019-02-27T08:55:19.978Z,101503.27
2019-02-27T08:57:49.718Z,101505.16
2019-02-27T09:00:23.498Z,101498.72
2019-02-27T09:02:55.798Z,101498.72
2019-02-27T09:05:29.346Z,101505.78
2019-02-27T09:08:01.398Z,101500.08
2019-02-27T09:10:33.238Z,101490.85
2019-02-27T09:13:06.097Z,101486.77
2019-02-27T09:15:38.301Z,101482.81
2019-02-27T09:18:10.385Z,101479.28
2019-02-27T09:20:42.418Z,101480.27
2019-02-27T09:23:14.512Z,101486.66
2019-02-27T09:25:46.340Z,101485.68
2019-02-27T09:28:18.439Z,101481.75
2019-02-27T09:30:50.226Z,101471.36
2019-02-27T09:33:22.294Z,101468.58
2019-02-27T09:35:54.378Z,101471.85
2019-02-27T09:38:26.507Z,101468.56
2019-02-27T09:40:58.499Z,101465.17
2019-02-27T09:43:32.229Z,101473.16
2019-02-27T09:46:04.205Z,101476.29
2019-02-27T09:48:36.298Z,101472.20
2019-02-27T09:51:09.790Z,101468.26
2019-02-27T09:53:42.171Z,101457.45
2019-02-27T09:56:14.101Z,101453.17
2019-02-27T09:58:46.289Z,101449.59
2019-02-27T10:01:19.953Z,101440.00
2019-02-27T10:03:55.261Z,101440.34
2019-02-27T10:06:26.177Z,101432.36
2019-02-27T10:08:58.990Z,101425.75
2019-02-27T10:11:31.590Z,101425.23
2019-02-27T10:14:03.521Z,101416.05
2019-02-27T10:16:35.379Z,101420.27
2019-02-27T10:19:07.387Z,101420.41
2019-02-27T10:21:41.255Z,101407.35
2019-02-27T10:24:13.080Z,101400.63
2019-02-27T10:26:44.865Z,101393.83
2019-02-27T10:29:16.833Z,101394.42
2019-02-27T10:31:48.655Z,101382.08
2019-02-27T10:34:20.970Z,101381.03
2019-02-27T10:36:53.023Z,101378.77
2019-02-27T10:39:24.975Z,101372.21
2019-02-27T10:41:56.789Z,101369.52
2019-02-27T10:44:28.708Z,101359.87
2019-02-27T10:47:00.786Z,101354.59
2019-02-27T10:49:33.148Z,101349.77
2019-02-27T10:52:05.321Z,101339.55
2019-02-27T10:54:39.443Z,101332.11
2019-02-27T10:57:10.844Z,101328.07
2019-02-27T10:59:42.855Z,101328.84
2019-02-27T11:02:14.688Z,101318.45
2019-02-27T11:04:46.579Z,101314.81
2019-02-27T11:07:18.636Z,101310.23
2019-02-27T11:09:51.012Z,101307.11
2019-02-27T11:12:23.950Z,101304.92
2019-02-27T11:14:56.083Z,101292.71
2019-02-27T11:17:28.934Z,101295.51
2019-02-27T11:20:00.911Z,101290.56
2019-02-27T11:22:33.887Z,101274.62
2019-02-27T11:25:06.586Z,101271.99
2019-02-27T11:27:38.997Z,101265.37
2019-02-27T11:30:21.169Z,101251.41
2019-02-27T11:32:56.902Z,101253.48
2019-02-27T11:35:27.163Z,101250.68
2019-02-27T11:37:58.983Z,101247.00
2019-02-27T11:40:30.970Z,101233.92
2019-02-27T11:43:06.341Z,101241.52
2019-02-27T11:45:36.533Z,101238.77
2019-02-27T11:48:08.305Z,101235.53
2019-02-27T11:50:40.352Z,101230.82
2019-02-27T11:53:12.585Z,101229.75
2019-02-27T11:55:47.138Z,101215.12
2019-02-27T11:58:20.048Z,101219.14
2019-02-27T12:00:52.063Z,101209.66
2019-02-27T12:03:24.006Z,101202.25
2019-02-27T12:05:56.424Z,101193.36
2019-02-27T12:08:30.233Z,101185.63
2019-02-27T12:11:02.318Z,101170.94
2019-02-27T12:13:34.879Z,101158.19
2019-02-27T12:16:10.654Z,101151.48
2019-02-27T12:18:42.572Z,101142.97
2019-02-27T12:21:14.566Z,101139.78
2019-02-27T12:23:46.600Z,101138.71
2019-02-27T12:26:18.711Z,101133.80
2019-02-27T12:28:52.671Z,101129.81
2019-02-27T12:31:24.052Z,101125.45
2019-02-27T12:33:56.811Z,101113.83
2019-02-27T12:36:28.912Z,101119.33
2019-02-27T12:39:00.920Z,101109.50
2019-02-27T12:41:34.692Z,101113.55
2019-02-27T12:44:06.464Z,101103.19
2019-02-27T12:46:38.358Z,101102.25
2019-02-27T12:49:10.159Z,101107.50
2019-02-27T12:51:42.243Z,101092.52
2019-02-27T12:54:33.266Z,101089.62
2019-02-27T12:57:05.319Z,101084.05
2019-02-27T12:59:37.175Z,101076.92
2019-02-27T13:02:10.847Z,101077.51
2019-02-27T13:04:42.497Z,101053.34
2019-02-27T13:07:15.643Z,101054.94
2019-02-27T13:09:47.614Z,101045.76
2019-02-27T13:12:19.855Z,101049.33
2019-02-27T13:14:51.658Z,101041.55
2019-02-27T13:17:23.582Z,101030.02
2019-02-27T13:19:55.341Z,101027.02
2019-02-27T13:22:29.178Z,101019.35
2019-02-27T13:25:00.848Z,101018.97
2019-02-27T13:27:32.688Z,101016.13
2019-02-27T13:30:08.724Z,101010.52
2019-02-27T13:32:39.149Z,101003.23
2019-02-27T13:35:11.277Z,101002.97
2019-02-27T13:37:44.560Z,100988.39
2019-02-27T13:40:18.471Z,100985.72
2019-02-27T13:42:53.513Z,100981.77
2019-02-27T13:45:25.698Z,100984.75
2019-02-27T13:47:59.069Z,100969.84
2019-02-27T13:50:31.217Z,100970.13
2019-02-27T13:53:03.260Z,100969.77
2019-02-27T13:55:35.445Z,100967.75
2019-02-27T13:58:07.490Z,100963.38
2019-02-27T14:00:39.707Z,100954.10
2019-02-27T14:03:12.624Z,100943.61
2019-02-27T14:05:45.365Z,100935.16
2019-02-27T14:08:17.497Z,100931.28
2019-02-27T14:10:50.427Z,100932.27
2019-02-27T14:13:23.054Z,100928.66
2019-02-27T14:15:54.830Z,100927.21
2019-02-27T14:18:26.735Z,100924.52
2019-02-27T14:20:58.988Z,100909.09
2019-02-27T14:23:32.516Z,100909.36
2019-02-27T14:26:06.717Z,100899.84
2019-02-27T14:28:38.635Z,100902.27
2019-02-27T14:31:10.562Z,100889.13
2019-02-27T14:33:42.685Z,100885.52
2019-02-27T14:36:14.507Z,100875.94
2019-02-27T14:38:46.703Z,100870.28
2019-02-27T14:41:18.882Z,100858.66
2019-02-27T14:43:50.920Z,100865.30
2019-02-27T14:46:22.847Z,100859.41
2019-02-27T14:48:56.140Z,100845.39
2019-02-27T14:51:28.049Z,100845.32
2019-02-27T14:54:00.514Z,100830.03
2019-02-27T14:56:32.676Z,100827.21
2019-02-27T14:59:04.694Z,100814.71
2019-02-27T15:01:36.531Z,100819.50
2019-02-27T15:04:08.321Z,100803.58
2019-02-27T15:06:40.290Z,100795.97
2019-02-27T15:09:12.320Z,100798.73
2019-02-27T15:11:48.273Z,100799.73
2019-02-27T15:14:18.547Z,100789.66
2019-02-27T15:16:50.368Z,100800.38
2019-02-27T15:19:22.517Z,100794.17
2019-02-27T15:21:54.417Z,100790.55
2019-02-27T15:24:26.560Z,100789.27
2019-02-27T15:26:58.468Z,100784.38
2019-02-27T15:29:30.567Z,100782.70
2019-02-27T15:32:03.918Z,100783.72
2019-02-27T15:34:35.975Z,100771.39
2019-02-27T15:37:07.833Z,100772.41
2019-02-27T15:39:40.386Z,100769.52
2019-02-27T15:42:12.804Z,100761.81
2019-02-27T15:44:44.872Z,100746.60
2019-02-27T15:47:16.771Z,100748.09
2019-02-27T15:49:49.493Z,100740.30
2019-02-27T15:52:21.559Z,100730.61
2019-02-27T15:54:55.549Z,100736.60
2019-02-27T15:57:27.476Z,100726.66
2019-02-27T16:00:00.095Z,100725.91
2019-02-27T16:02:34.012Z,100722.26
2019-02-27T16:05:09.118Z,100720.14
2019-02-27T16:07:41.520Z,100717.48
2019-02-27T16:10:16.843Z,100706.26
2019-02-27T16:12:48.904Z,100704.39
2019-02-27T16:15:22.651Z,100690.85
2019-02-27T16:17:54.540Z,100695.02
2019-02-27T16:20:26.557Z,100692.75
2019-02-27T16:22:58.695Z,100685.05
2019-02-27T16:25:31.876Z,100681.88
2019-02-27T16:28:04.069Z,100677.33
2019-02-27T16:30:37.179Z,100681.98
2019-02-27T16:33:09.235Z,100672.68
2019-02-27T16:35:42.908Z,100665.77
2019-02-27T16:38:16.300Z,100650.20
2019-02-27T16:40:52.072Z,100656.68
2019-02-27T16:43:23.201Z,100644.84
2019-02-27T16:45:55.247Z,100638.29
2019-02-27T16:48:27.235Z,100636.70
2019-02-27T16:51:00.646Z,100637.05
2019-02-27T16:53:32.826Z,100640.83
2019-02-27T16:56:04.761Z,100643.77
2019-02-27T16:58:36.649Z,100639.23
2019-02-27T17:01:10.001Z,100633.28
2019-02-27T17:03:41.891Z,100621.28
2019-02-27T17:06:14.146Z,100616.84
2019-02-27T17:08:47.390Z,100618.98
2019-02-27T17:11:19.251Z,100615.69
2019-02-27T17:13:51.349Z,100608.30
2019-02-27T17:16:23.308Z,100603.37
2019-02-27T17:18:55.128Z,100602.62
2019-02-27T17:21:27.042Z,100608.92
2019-02-27T17:23:58.963Z,100601.94
2019-02-27T17:26:31.016Z,100602.70
2019-02-27T17:29:03.234Z,100598.21
2019-02-27T17:31:35.573Z,100602.09
2019-02-27T17:34:08.315Z,100600.23
2019-02-27T17:36:41.289Z,100595.91
2019-02-27T17:39:13.126Z,100583.20
2019-02-27T17:41:45.386Z,100582.99
2019-02-27T17:44:17.671Z,100584.77
2019-02-27T17:46:54.388Z,100584.91
2019-02-27T17:49:25.393Z,100574.12
2019-02-27T17:51:56.965Z,100573.55
2019-02-27T17:54:31.378Z,100570.16
2019-02-27T17:57:02.769Z,100566.05
2019-02-27T17:59:35.031Z,100571.84
2019-02-27T18:02:07.842Z,100567.70
2019-02-27T18:04:39.873Z,100561.16
2019-02-27T18:07:12.058Z,100542.36
2019-02-27T18:09:43.902Z,100538.43
2019-02-27T18:12:16.248Z,100528.12
2019-02-27T18:14:48.520Z,100532.91
2019-02-27T18:17:21.242Z,100522.75
2019-02-27T18:19:53.241Z,100511.89
2019-02-27T18:22:25.386Z,100510.14
2019-02-27T18:24:57.318Z,100511.68
2019-02-27T18:27:29.271Z,100517.38
2019-02-27T18:30:01.603Z,100514.14
2019-02-27T18:32:34.325Z,100521.59
2019-02-27T18:35:06.529Z,100515.77
2019-02-27T18:37:38.827Z,100501.31
2019-02-27T18:40:13.402Z,100504.53
2019-02-27T18:42:45.507Z,100481.06
2019-02-27T18:45:19.003Z,100482.86
2019-02-27T18:47:51.645Z,100480.17
2019-02-27T18:50:24.817Z,100475.72
2019-02-27T18:52:58.188Z,100469.02
2019-02-27T18:55:31.377Z,100462.95
2019-02-27T18:58:04.473Z,100463.97
2019-02-27T19:00:36.934Z,100460.03
2019-02-27T19:03:09.396Z,100457.75
2019-02-27T19:05:42.271Z,100454.82
2019-02-27T19:08:14.758Z,100459.90
2019-02-27T19:10:47.236Z,100460.37
2019-02-27T19:13:19.606Z,100460.23
2019-02-27T19:15:51.987Z,100458.74
2019-02-27T19:18:24.575Z,100457.44
2019-02-27T19:20:59.143Z,100441.38
2019-02-27T19:23:30.756Z,100437.82
2019-02-27T19:26:03.313Z,100433.69
2019-02-27T19:28:35.856Z,100430.92
2019-02-27T19:31:08.355Z,100436.08
2019-02-27T19:33:42.047Z,100421.61
2019-02-27T19:36:19.471Z,100415.78
2019-02-27T19:38:52.729Z,100425.53
2019-02-27T19:41:26.090Z,100411.77
2019-02-27T19:43:59.346Z,100408.03
2019-02-27T19:46:32.183Z,100412.23
2019-02-27T19:49:06.096Z,100394.41
2019-02-27T19:51:39.183Z,100387.80
2019-02-27T19:54:14.934Z,100380.47
2019-02-27T19:56:47.557Z,100370.81
2019-02-27T19:59:24.685Z,100365.64
2019-02-27T20:01:55.850Z,100369.92
2019-02-27T20:04:29.758Z,100358.63
2019-02-27T20:07:02.603Z,100349.25
2019-02-27T20:09:35.312Z,100355.19
2019-02-27T20:12:09.575Z,100339.02
2019-02-27T20:14:43.396Z,100330.27
2019-02-27T20:17:16.808Z,100336.02
2019-02-27T20:19:49.998Z,100339.47
2019-02-27T20:22:22.913Z,100325.68
2019-02-27T20:24:56.715Z,100321.63
2019-02-27T20:27:30.271Z,100310.54
2019-02-27T20:30:04.140Z,100304.13
2019-02-27T20:32:40.016Z,100302.19
2019-02-27T20:35:14.299Z,100303.73
2019-02-27T20:37:47.884Z,100295.44
2019-02-27T20:40:22.278Z,100300.67
2019-02-27T20:42:56.344Z,100298.09
2019-02-27T20:45:30.248Z,100289.42
2019-02-27T20:48:05.156Z,100275.27
2019-02-27T20:50:42.583Z,100271.23
2019-02-27T20:53:16.324Z,100272.86
2019-02-27T20:55:50.201Z,100265.76
2019-02-27T20:58:22.944Z,100251.81
2019-02-27T21:00:56.795Z,100244.88
2019-02-27T21:03:30.652Z,100241.05
2019-02-27T21:06:05.350Z,100234.73
2019-02-27T21:08:38.164Z,100236.52
2019-02-27T21:11:10.509Z,100233.67
2019-02-27T21:13:42.516Z,100229.63
2019-02-27T21:16:15.344Z,100233.20
2019-02-27T21:18:48.243Z,100229.75
2019-02-27T21:21:20.741Z,100221.06
2019-02-27T21:23:52.677Z,100225.35
2019-02-27T21:26:24.741Z,100215.14
2019-02-27T21:28:58.847Z,100205.43
2019-02-27T21:31:30.726Z,100217.03
2019-02-27T21:34:03.120Z,100212.80
2019-02-27T21:36:36.780Z,100209.04
2019-02-27T21:39:09.509Z,100199.45
2019-02-27T21:41:45.591Z,100201.20
2019-02-27T21:44:25.307Z,100192.68
2019-02-27T21:46:51.807Z,100178.79
2019-02-27T21:49:24.061Z,100179.37
2019-02-27T21:51:56.289Z,100171.62
2019-02-27T21:54:28.303Z,100165.52
2019-02-27T21:57:00.595Z,100172.92
2019-02-27T21:59:36.349Z,100178.00
2019-02-27T22:02:07.439Z,100161.53
2019-02-27T22:04:41.272Z,100156.73
2019-02-27T22:07:13.381Z,100152.08
2019-02-27T22:09:45.505Z,100150.61
2019-02-27T22:12:17.703Z,100155.55
2019-02-27T22:14:49.487Z,100143.56
2019-02-27T22:17:21.631Z,100142.53
2019-02-27T22:19:54.731Z,100134.94
2019-02-27T22:22:27.090Z,100135.64
2019-02-27T22:24:58.905Z,100124.88
2019-02-27T22:27:31.038Z,100123.09
2019-02-27T22:30:02.905Z,100119.06
2019-02-27T22:32:35.693Z,100110.59
2019-02-27T22:35:07.905Z,100100.34
2019-02-27T22:37:40.111Z,100103.15
2019-02-27T22:40:14.793Z,100106.98
2019-02-27T22:42:48.471Z,100102.17
2019-02-27T22:45:20.469Z,100099.07
2019-02-27T22:47:53.816Z,100104.85
2019-02-27T22:50:26.559Z,100101.17
2019-02-27T22:52:58.650Z,100094.68
2019-02-27T22:55:30.529Z,100087.52
2019-02-27T22:58:02.501Z,100085.84
2019-02-27T23:01:10.359Z,100088.46
2019-02-27T23:03:58.008Z,100077.50
2019-02-27T23:06:30.437Z,100075.25
2019-02-27T23:09:02.959Z,100065.23
2019-02-27T23:11:36.759Z,100064.52
2019-02-27T23:14:10.581Z,100054.04
2019-02-27T23:16:42.387Z,100058.67
2019-02-27T23:19:14.632Z,100053.81
2019-02-27T23:21:46.692Z,100050.56
2019-02-27T23:24:18.452Z,100049.92
2019-02-27T23:26:54.313Z,100055.12
2019-02-27T23:29:23.993Z,100053.25
2019-02-27T23:31:55.864Z,100046.53
2019-02-27T23:34:28.033Z,100042.05
2019-02-27T23:37:00.073Z,100046.20
2019-02-27T23:39:32.177Z,100040.39
2019-02-27T23:42:03.969Z,100041.50
2019-02-27T23:44:38.493Z,100042.73
2019-02-27T23:47:09.276Z,100041.22
2019-02-27T23:49:41.348Z,100037.78
2019-02-27T23:52:13.398Z,100026.70
2019-02-27T23:54:45.215Z,100019.30
2019-02-27T23:57:17.026Z,100016.10
2019-02-27T23:59:48.886Z,100001.38
